createdAt,value
2022-10-26T00:02:16.410Z,94.50
2022-10-26T00:05:19.309Z,94.30
2022-10-26T00:08:22.156Z,94.30
2022-10-26T00:11:25.400Z,94.40
2022-10-26T00:14:28.639Z,94.40
2022-10-26T00:17:32.918Z,94.30
2022-10-26T00:20:35.804Z,94.50
2022-10-26T00:23:39.141Z,94.60
2022-10-26T00:26:42.558Z,94.60
2022-10-26T00:29:45.439Z,94.50
2022-10-26T00:32:49.871Z,94.40
2022-10-26T00:35:55.227Z,94.80
2022-10-26T00:38:58.695Z,94.70
2022-10-26T00:42:01.626Z,94.70
2022-10-26T00:45:08.628Z,94.80
2022-10-26T00:48:25.369Z,94.80
2022-10-26T00:51:32.945Z,94.80
2022-10-26T00:54:36.382Z,94.90
2022-10-26T00:57:40.308Z,94.80
2022-10-26T01:00:43.803Z,95.00
2022-10-26T01:03:48.674Z,94.80
2022-10-26T01:06:52.858Z,95.20
2022-10-26T01:09:56.731Z,95.40
2022-10-26T01:13:00.455Z,95.40
2022-10-26T01:16:16.574Z,95.40
2022-10-26T01:19:53.928Z,95.40
2022-10-26T01:23:02.579Z,95.40
2022-10-26T01:26:48.181Z,95.40
2022-10-26T01:30:21.854Z,95.60
2022-10-26T01:33:33.643Z,95.60
2022-10-26T01:36:42.615Z,95.50
2022-10-26T01:39:49.662Z,95.60
2022-10-26T01:42:55.804Z,95.70
2022-10-26T01:45:59.890Z,96.20
2022-10-26T01:49:11.118Z,96.40
2022-10-26T01:52:14.299Z,96.30
2022-10-26T01:55:46.659Z,96.40
2022-10-26T01:59:14.570Z,96.30
2022-10-26T02:02:44.703Z,96.50
2022-10-26T02:06:01.890Z,96.50
2022-10-26T02:09:17.715Z,96.70
2022-10-26T02:12:31.386Z,96.40
2022-10-26T02:15:40.818Z,96.60
2022-10-26T02:18:51.976Z,96.80
2022-10-26T02:22:01.133Z,96.90
2022-10-26T02:25:08.782Z,96.60
2022-10-26T02:28:15.123Z,96.80
2022-10-26T02:31:20.680Z,96.80
2022-10-26T02:34:28.593Z,96.80
2022-10-26T02:37:34.134Z,96.80
2022-10-26T02:40:38.623Z,96.50
2022-10-26T02:43:48.878Z,96.80
2022-10-26T02:46:52.781Z,97.00
2022-10-26T02:49:56.950Z,97.10
2022-10-26T02:53:10.521Z,97.10
2022-10-26T02:56:19.314Z,97.00
2022-10-26T02:59:24.795Z,96.80
2022-10-26T03:02:30.112Z,96.90
2022-10-26T03:05:33.796Z,97.00
2022-10-26T03:08:38.019Z,97.40
2022-10-26T03:11:41.100Z,97.20
2022-10-26T03:14:43.956Z,97.40
2022-10-26T03:17:47.003Z,96.90
2022-10-26T03:20:50.119Z,97.20
2022-10-26T03:23:54.317Z,97.40
2022-10-26T03:26:59.644Z,97.20
2022-10-26T03:30:05.916Z,97.40
2022-10-26T03:33:08.780Z,97.30
2022-10-26T03:36:12.135Z,97.20
2022-10-26T03:39:16.311Z,97.40
2022-10-26T03:42:19.156Z,97.70
2022-10-26T03:45:22.000Z,97.70
2022-10-26T03:48:24.919Z,97.90
2022-10-26T03:51:28.061Z,97.90
2022-10-26T03:54:32.305Z,97.90
2022-10-26T03:57:35.175Z,98.00
2022-10-26T04:00:38.273Z,98.00
2022-10-26T04:03:41.391Z,98.00
2022-10-26T04:06:44.226Z,98.00
2022-10-26T04:09:48.429Z,97.90
2022-10-26T04:12:51.532Z,97.90
2022-10-26T04:15:54.369Z,97.80
2022-10-26T04:18:57.353Z,98.00
2022-10-26T04:22:00.216Z,98.40
2022-10-26T04:25:04.845Z,97.90
2022-10-26T04:28:08.767Z,98.10
2022-10-26T04:31:11.876Z,98.30
2022-10-26T04:34:14.754Z,98.20
2022-10-26T04:37:17.597Z,98.30
2022-10-26T04:40:22.041Z,98.30
2022-10-26T04:43:25.193Z,98.30
2022-10-26T04:46:28.063Z,98.40
2022-10-26T04:49:30.944Z,98.60
2022-10-26T04:52:33.831Z,98.30
2022-10-26T04:55:38.202Z,98.30
2022-10-26T04:58:41.060Z,98.30
2022-10-26T05:01:43.993Z,98.10
2022-10-26T05:04:46.932Z,98.50
2022-10-26T05:07:55.089Z,98.50
2022-10-26T05:10:59.312Z,99.00
2022-10-26T05:14:02.159Z,98.90
2022-10-26T05:17:05.514Z,99.10
2022-10-26T05:20:13.083Z,98.90
2022-10-26T05:23:18.393Z,98.80
2022-10-26T05:26:23.549Z,99.00
2022-10-26T05:29:26.404Z,98.70
2022-10-26T05:32:29.266Z,98.60
2022-10-26T05:35:32.928Z,98.90
2022-10-26T05:38:35.977Z,98.70
2022-10-26T05:41:40.187Z,99.00
2022-10-26T05:44:43.029Z,98.90
2022-10-26T05:47:47.128Z,99.00
2022-10-26T05:50:50.250Z,98.80
2022-10-26T05:53:54.770Z,98.90
2022-10-26T05:56:59.621Z,99.20
2022-10-26T06:00:03.228Z,99.00
2022-10-26T06:03:15.013Z,98.90
2022-10-26T06:06:18.455Z,99.20
2022-10-26T06:09:21.742Z,99.20
2022-10-26T06:12:26.630Z,99.30
2022-10-26T06:15:33.607Z,99.40
2022-10-26T06:18:47.624Z,99.30
2022-10-26T06:22:05.630Z,99.20
2022-10-26T06:25:21.020Z,99.40
2022-10-26T06:28:37.821Z,99.60
2022-10-26T06:31:40.800Z,99.60
2022-10-26T06:34:47.588Z,99.30
2022-10-26T06:37:51.747Z,99.50
2022-10-26T06:40:57.778Z,99.50
2022-10-26T06:44:03.362Z,99.60
2022-10-26T06:47:08.700Z,99.70
2022-10-26T06:50:26.242Z,99.60
2022-10-26T06:53:34.472Z,99.40
2022-10-26T06:56:37.631Z,99.60
2022-10-26T06:59:46.882Z,99.50
2022-10-26T07:02:50.874Z,99.60
2022-10-26T07:05:54.014Z,99.70
2022-10-26T07:08:56.905Z,99.90
2022-10-26T07:11:59.775Z,99.70
2022-10-26T07:15:04.624Z,99.90
2022-10-26T07:18:08.674Z,99.90
2022-10-26T07:21:11.547Z,99.90
2022-10-26T07:24:14.432Z,99.90
2022-10-26T07:27:19.579Z,99.90
2022-10-26T07:30:23.810Z,99.90
2022-10-26T07:33:26.737Z,99.90
2022-10-26T07:36:30.692Z,99.90
2022-10-26T07:39:33.695Z,99.90
2022-10-26T07:42:37.442Z,99.90
2022-10-26T07:45:41.663Z,99.90
2022-10-26T07:51:52.287Z,99.90
2022-10-26T07:54:55.166Z,99.90
2022-10-26T07:57:58.250Z,99.90
2022-10-26T08:01:08.477Z,99.90
2022-10-26T08:04:11.726Z,99.90
2022-10-26T08:07:14.640Z,99.90
2022-10-26T08:10:18.122Z,99.90
2022-10-26T08:13:21.012Z,99.90
2022-10-26T08:16:25.794Z,99.90
2022-10-26T08:19:28.663Z,99.90
2022-10-26T08:22:31.684Z,99.90
2022-10-26T08:25:34.671Z,99.90
2022-10-26T08:28:37.558Z,99.90
2022-10-26T08:31:41.787Z,99.90
2022-10-26T08:34:44.635Z,99.90
2022-10-26T08:37:47.513Z,99.90
2022-10-26T08:40:50.670Z,99.90
2022-10-26T08:43:57.848Z,99.80
2022-10-26T08:47:08.678Z,99.90
2022-10-26T08:50:15.703Z,99.60
2022-10-26T08:53:23.758Z,99.60
2022-10-26T08:56:28.737Z,99.90
2022-10-26T08:59:39.294Z,99.20
2022-10-26T09:02:43.503Z,99.20
2022-10-26T09:05:57.581Z,99.00
2022-10-26T09:09:06.762Z,98.70
2022-10-26T09:12:15.681Z,98.20
2022-10-26T09:15:29.581Z,97.90
2022-10-26T09:22:04.245Z,97.80
2022-10-26T09:25:18.814Z,97.40
2022-10-26T09:28:22.563Z,96.50
2022-10-26T09:31:26.948Z,96.20
2022-10-26T09:34:38.034Z,96.10
2022-10-26T09:37:48.229Z,96.00
2022-10-26T09:40:57.070Z,94.90
2022-10-26T09:44:07.847Z,94.50
2022-10-26T09:47:17.071Z,94.70
2022-10-26T09:50:25.176Z,95.10
2022-10-26T09:53:28.697Z,92.80
2022-10-26T09:56:32.747Z,93.80
2022-10-26T09:59:41.048Z,93.90
2022-10-26T10:02:45.401Z,93.80
2022-10-26T10:05:51.737Z,92.00
2022-10-26T10:09:10.430Z,92.70
2022-10-26T10:12:21.732Z,92.10
2022-10-26T10:15:26.533Z,91.70
2022-10-26T10:18:29.653Z,90.40
2022-10-26T10:21:38.907Z,90.00
2022-10-26T10:24:43.455Z,89.60
2022-10-26T10:27:54.649Z,91.60
2022-10-26T10:31:00.413Z,89.80
2022-10-26T10:34:17.193Z,90.20
2022-10-26T10:37:27.487Z,88.80
2022-10-26T10:40:32.076Z,90.20
2022-10-26T10:43:35.300Z,89.80
2022-10-26T10:46:38.793Z,90.50
2022-10-26T10:49:44.376Z,89.30
2022-10-26T10:52:49.482Z,89.60
2022-10-26T10:56:05.437Z,90.40
2022-10-26T10:59:38.707Z,90.50
2022-10-26T11:02:58.423Z,91.10
2022-10-26T11:06:16.603Z,91.00
2022-10-26T11:09:27.762Z,90.90
2022-10-26T11:15:42.193Z,90.40
2022-10-26T11:18:49.467Z,90.80
2022-10-26T11:21:55.698Z,90.70
2022-10-26T11:25:04.176Z,90.90
2022-10-26T11:28:15.353Z,90.40
2022-10-26T11:31:23.774Z,90.50
2022-10-26T11:34:35.581Z,90.50
2022-10-26T11:37:45.276Z,90.80
2022-10-26T11:40:58.570Z,90.50
2022-10-26T11:44:10.173Z,90.80
2022-10-26T11:47:17.124Z,90.40
2022-10-26T11:50:24.284Z,90.80
2022-10-26T11:53:32.343Z,90.40
2022-10-26T11:56:42.972Z,90.20
2022-10-26T11:59:51.636Z,90.50
2022-10-26T12:02:58.920Z,90.10
2022-10-26T12:06:02.428Z,90.00
2022-10-26T12:09:09.973Z,89.70
2022-10-26T12:12:21.083Z,89.60
2022-10-26T12:15:35.312Z,89.70
2022-10-26T12:18:55.395Z,89.70
2022-10-26T12:21:59.300Z,90.00
2022-10-26T12:25:20.704Z,89.30
2022-10-26T12:28:42.862Z,89.80
2022-10-26T12:31:45.750Z,89.30
2022-10-26T12:35:24.946Z,90.40
2022-10-26T12:38:49.912Z,90.00
2022-10-26T12:41:57.999Z,90.30
2022-10-26T12:45:18.095Z,90.00
2022-10-26T12:48:38.769Z,90.00
2022-10-26T12:51:45.487Z,89.40
2022-10-26T12:55:04.164Z,89.30
2022-10-26T12:58:39.651Z,90.00
2022-10-26T13:01:58.741Z,88.70
2022-10-26T13:05:30.582Z,87.20
2022-10-26T13:08:44.855Z,89.10
2022-10-26T13:11:49.821Z,87.50
2022-10-26T13:15:00.231Z,86.90
2022-10-26T13:18:10.859Z,87.80
2022-10-26T13:21:16.916Z,87.30
2022-10-26T13:24:21.450Z,85.70
2022-10-26T13:27:41.201Z,85.50
2022-10-26T13:30:48.847Z,86.30
2022-10-26T13:33:57.300Z,87.40
2022-10-26T13:37:08.150Z,86.50
2022-10-26T13:40:18.510Z,86.00
2022-10-26T13:43:23.977Z,85.70
2022-10-26T13:46:28.827Z,86.50
2022-10-26T13:49:39.257Z,87.40
2022-10-26T13:52:45.743Z,87.10
2022-10-26T13:55:52.716Z,88.10
2022-10-26T13:59:00.352Z,87.40
2022-10-26T14:02:17.790Z,87.70
2022-10-26T14:05:22.412Z,86.30
2022-10-26T14:08:25.501Z,87.10
2022-10-26T14:11:36.109Z,87.30
2022-10-26T14:14:41.179Z,88.60
2022-10-26T14:17:44.178Z,86.70
2022-10-26T14:20:55.047Z,87.40
2022-10-26T14:24:00.223Z,87.70
2022-10-26T14:27:03.197Z,87.00
2022-10-26T14:30:23.685Z,86.80
2022-10-26T14:33:29.618Z,86.40
2022-10-26T14:36:38.480Z,87.10
2022-10-26T14:39:47.551Z,86.00
2022-10-26T14:42:54.758Z,87.30
2022-10-26T14:45:58.080Z,87.50
2022-10-26T14:49:03.340Z,87.50
2022-10-26T14:52:07.937Z,88.00
2022-10-26T14:55:15.665Z,89.50
2022-10-26T14:58:25.468Z,90.30
2022-10-26T15:01:35.747Z,89.80
2022-10-26T15:04:41.590Z,90.40
2022-10-26T15:07:45.838Z,89.50
2022-10-26T15:10:49.461Z,90.00
2022-10-26T15:13:53.826Z,91.20
2022-10-26T15:16:59.161Z,90.20
2022-10-26T15:20:04.762Z,90.50
2022-10-26T15:23:15.323Z,91.30
2022-10-26T15:26:18.358Z,90.50
2022-10-26T15:29:37.905Z,91.10
2022-10-26T15:32:41.154Z,90.60
2022-10-26T15:35:44.142Z,90.30
2022-10-26T15:38:49.315Z,90.50
2022-10-26T15:41:53.563Z,91.30
2022-10-26T15:44:56.541Z,91.80
2022-10-26T15:48:01.412Z,92.00
2022-10-26T15:51:04.507Z,92.00
2022-10-26T15:54:10.187Z,92.30
2022-10-26T15:57:17.807Z,92.40
2022-10-26T16:00:23.756Z,92.40
2022-10-26T16:03:27.672Z,92.40
2022-10-26T16:06:32.715Z,92.80
2022-10-26T16:09:36.924Z,93.30
2022-10-26T16:12:39.790Z,93.20
2022-10-26T16:15:43.155Z,93.00
2022-10-26T16:18:46.502Z,92.90
2022-10-26T16:21:52.454Z,93.00
2022-10-26T16:24:56.651Z,93.00
2022-10-26T16:27:59.766Z,93.10
2022-10-26T16:31:02.778Z,93.00
2022-10-26T16:34:05.628Z,93.20
2022-10-26T16:37:08.575Z,93.30
2022-10-26T16:40:13.558Z,93.30
2022-10-26T16:43:16.434Z,93.50
2022-10-26T16:46:21.595Z,93.70
2022-10-26T16:49:24.567Z,93.70
2022-10-26T16:52:27.424Z,93.80
2022-10-26T16:55:31.963Z,93.80
2022-10-26T16:58:37.459Z,93.90
2022-10-26T17:01:40.617Z,93.90
2022-10-26T17:04:43.561Z,94.10
2022-10-26T17:07:48.240Z,94.10
2022-10-26T17:10:52.804Z,94.10
2022-10-26T17:13:56.275Z,94.30
2022-10-26T17:16:59.135Z,94.60
2022-10-26T17:20:02.294Z,94.50
2022-10-26T17:23:05.453Z,94.50
2022-10-26T17:26:11.187Z,94.60
2022-10-26T17:29:14.833Z,94.70
2022-10-26T17:32:17.824Z,94.80
2022-10-26T17:35:20.864Z,94.70
2022-10-26T17:38:23.774Z,94.70
2022-10-26T17:41:28.693Z,94.70
2022-10-26T17:44:31.764Z,94.70
2022-10-26T17:47:34.623Z,94.90
2022-10-26T17:50:37.555Z,94.90
2022-10-26T17:53:40.704Z,94.80
2022-10-26T17:56:47.440Z,94.70
2022-10-26T17:59:50.296Z,94.60
2022-10-26T18:02:53.234Z,94.70
2022-10-26T18:05:56.174Z,94.50
2022-10-26T18:08:59.602Z,94.50
2022-10-26T18:12:03.871Z,94.50
2022-10-26T18:15:07.531Z,94.40
2022-10-26T18:18:10.493Z,94.40
2022-10-26T18:21:15.158Z,94.50
2022-10-26T18:24:18.412Z,94.50
2022-10-26T18:27:22.621Z,94.40
2022-10-26T18:30:26.409Z,94.60
2022-10-26T18:33:29.327Z,94.60
2022-10-26T18:36:32.897Z,94.50
2022-10-26T18:39:35.925Z,94.50
2022-10-26T18:42:40.244Z,94.40
2022-10-26T18:45:44.242Z,94.80
2022-10-26T18:48:47.168Z,94.40
2022-10-26T18:51:50.888Z,94.50
2022-10-26T18:54:53.877Z,94.40
2022-10-26T18:57:59.304Z,94.50
2022-10-26T19:01:10.346Z,94.50
2022-10-26T19:04:13.360Z,94.40
2022-10-26T19:07:16.359Z,94.40
2022-10-26T19:10:19.231Z,94.50
2022-10-26T19:13:23.628Z,94.50
2022-10-26T19:19:51.038Z,94.70
2022-10-26T19:22:54.483Z,94.80
2022-10-26T19:25:57.852Z,94.80
2022-10-26T19:29:05.872Z,94.70
2022-10-26T19:32:08.699Z,94.50
2022-10-26T19:35:11.572Z,94.60
2022-10-26T19:38:14.410Z,94.60
2022-10-26T19:41:17.814Z,94.60
2022-10-26T19:44:25.406Z,94.60
2022-10-26T19:47:28.588Z,94.60
2022-10-26T19:50:31.492Z,94.70
2022-10-26T19:53:34.592Z,94.80
2022-10-26T19:56:38.280Z,94.90
2022-10-26T19:59:42.513Z,94.90
2022-10-26T20:02:45.385Z,94.90
2022-10-26T20:05:48.278Z,95.50
2022-10-26T20:08:51.408Z,95.10
2022-10-26T20:11:54.278Z,94.90
2022-10-26T20:14:58.508Z,94.90
2022-10-26T20:18:01.360Z,94.80
2022-10-26T20:21:08.632Z,94.80
2022-10-26T20:24:11.636Z,94.60
2022-10-26T20:27:14.458Z,94.70
2022-10-26T20:30:19.093Z,94.70
2022-10-26T20:33:22.058Z,94.80
2022-10-26T20:36:25.177Z,94.80
2022-10-26T20:39:28.905Z,94.70
2022-10-26T20:42:32.262Z,94.60
2022-10-26T20:45:36.904Z,94.60
2022-10-26T20:48:40.481Z,94.60
2022-10-26T20:52:15.376Z,94.50
2022-10-26T20:55:18.992Z,94.60
2022-10-26T20:58:33.267Z,94.90
2022-10-26T21:01:38.552Z,94.60
2022-10-26T21:04:41.501Z,94.60
2022-10-26T21:07:44.440Z,94.40
2022-10-26T21:10:47.659Z,94.30
2022-10-26T21:13:51.068Z,94.40
2022-10-26T21:16:55.274Z,94.40
2022-10-26T21:19:58.116Z,94.40
2022-10-26T21:23:01.109Z,94.40
2022-10-26T21:26:04.378Z,94.40
2022-10-26T21:29:07.231Z,94.60
2022-10-26T21:32:11.589Z,94.60
2022-10-26T21:35:14.457Z,94.40
2022-10-26T21:38:17.323Z,94.50
2022-10-26T21:41:21.924Z,94.60
2022-10-26T21:44:39.920Z,94.80
2022-10-26T21:47:45.157Z,94.80
2022-10-26T21:50:47.983Z,94.80
2022-10-26T21:53:52.345Z,95.00
2022-10-26T21:56:55.235Z,95.10
2022-10-26T21:59:58.114Z,95.10
2022-10-26T22:03:02.611Z,95.10
2022-10-26T22:06:06.516Z,95.10
2022-10-26T22:09:09.500Z,95.10
2022-10-26T22:12:12.381Z,95.10
2022-10-26T22:15:15.294Z,95.30
2022-10-26T22:18:19.524Z,95.40
2022-10-26T22:21:24.328Z,95.40
2022-10-26T22:24:27.214Z,95.50
2022-10-26T22:27:31.102Z,95.40
2022-10-26T22:30:37.718Z,95.40
2022-10-26T22:33:42.059Z,95.30
2022-10-26T22:36:45.499Z,95.20
2022-10-26T22:42:56.198Z,95.20
2022-10-26T22:46:03.789Z,95.20
2022-10-26T22:49:08.017Z,95.20
2022-10-26T22:52:10.917Z,95.30
2022-10-26T22:55:13.818Z,95.60
2022-10-26T22:58:17.295Z,95.90
2022-10-26T23:01:22.442Z,96.00
2022-10-26T23:04:26.772Z,95.90
2022-10-26T23:07:30.570Z,96.00
2022-10-26T23:10:33.440Z,96.00
2022-10-26T23:13:36.426Z,95.90
2022-10-26T23:16:39.310Z,95.90
2022-10-26T23:19:43.577Z,96.00
2022-10-26T23:22:46.465Z,96.00
2022-10-26T23:25:49.332Z,95.90
2022-10-26T23:28:52.507Z,95.70
2022-10-26T23:35:00.440Z,95.40
2022-10-26T23:38:03.533Z,95.70
2022-10-26T23:41:09.481Z,95.80
2022-10-26T23:44:15.024Z,95.80
2022-10-26T23:47:18.077Z,95.90
2022-10-26T23:50:22.486Z,95.70
2022-10-26T23:53:26.556Z,95.60
2022-10-26T23:56:29.557Z,95.40
2022-10-26T23:59:32.575Z,95.40
